createdAt,value
2022-12-16T00:01:11.115Z,93.77
2022-12-16T00:03:41.411Z,93.94
2022-12-16T00:06:10.303Z,94.11
2022-12-16T00:08:39.721Z,94.17
2022-12-16T00:11:08.671Z,94.26
2022-12-16T00:13:38.254Z,94.28
2022-12-16T00:16:07.894Z,94.32
2022-12-16T00:18:36.772Z,94.32
2022-12-16T00:21:06.692Z,94.33
2022-12-16T00:23:35.707Z,94.21
2022-12-16T00:26:04.167Z,94.18
2022-12-16T00:28:32.585Z,94.33
2022-12-16T00:31:00.902Z,94.14
2022-12-16T00:33:29.443Z,94.07
2022-12-16T00:35:58.220Z,94.16
2022-12-16T00:38:28.251Z,94.18
2022-12-16T00:40:56.346Z,94.13
2022-12-16T00:43:24.521Z,94.20
2022-12-16T00:45:52.582Z,94.35
2022-12-16T00:48:22.883Z,94.51
2022-12-16T00:50:51.986Z,94.53
2022-12-16T00:53:20.440Z,94.47
2022-12-16T00:55:52.386Z,94.50
2022-12-16T00:58:21.694Z,94.47
2022-12-16T01:00:52.510Z,94.40
2022-12-16T01:03:22.012Z,94.34
2022-12-16T01:05:50.393Z,94.23
2022-12-16T01:08:18.630Z,94.17
2022-12-16T01:10:52.960Z,94.08
2022-12-16T01:13:25.117Z,94.03
2022-12-16T01:15:53.346Z,93.89
2022-12-16T01:18:22.026Z,93.93
2022-12-16T01:20:50.054Z,93.97
2022-12-16T01:23:18.710Z,93.89
2022-12-16T01:25:46.715Z,93.89
2022-12-16T01:28:16.015Z,93.82
2022-12-16T01:30:44.020Z,93.85
2022-12-16T01:33:12.295Z,93.74
2022-12-16T01:35:56.259Z,93.80
2022-12-16T01:38:24.752Z,93.77
2022-12-16T01:40:52.849Z,93.84
2022-12-16T01:43:26.797Z,93.85
2022-12-16T01:45:58.217Z,93.80
2022-12-16T01:48:35.266Z,93.72
2022-12-16T01:51:06.209Z,93.75
2022-12-16T01:53:35.337Z,93.67
2022-12-16T01:56:23.599Z,93.60
2022-12-16T01:58:53.439Z,93.47
2022-12-16T02:01:23.320Z,93.23
2022-12-16T02:03:53.479Z,93.31
2022-12-16T02:06:22.458Z,93.46
2022-12-16T02:08:54.954Z,93.63
2022-12-16T02:11:33.437Z,93.73
2022-12-16T02:14:20.363Z,93.67
2022-12-16T02:16:53.802Z,93.55
2022-12-16T02:19:43.101Z,93.47
2022-12-16T02:22:16.544Z,93.49
2022-12-16T02:24:59.309Z,93.74
2022-12-16T02:27:51.073Z,93.80
2022-12-16T02:30:39.968Z,94.00
2022-12-16T02:33:18.212Z,94.02
2022-12-16T02:35:51.608Z,94.08
2022-12-16T02:38:27.339Z,94.18
2022-12-16T02:41:01.550Z,94.26
2022-12-16T02:43:45.623Z,94.34
2022-12-16T02:46:15.055Z,94.55
2022-12-16T02:48:43.034Z,94.48
2022-12-16T02:51:11.326Z,94.56
2022-12-16T02:53:40.036Z,94.67
2022-12-16T02:56:19.511Z,94.64
2022-12-16T02:58:52.910Z,94.43
2022-12-16T03:01:27.866Z,94.41
2022-12-16T03:04:01.387Z,94.21
2022-12-16T03:06:31.720Z,94.20
2022-12-16T03:09:01.137Z,94.09
2022-12-16T03:11:30.858Z,94.05
2022-12-16T03:13:59.094Z,94.01
2022-12-16T03:16:31.611Z,93.99
2022-12-16T03:19:02.720Z,93.92
2022-12-16T03:21:33.420Z,94.00
2022-12-16T03:24:03.069Z,94.09
2022-12-16T03:26:34.462Z,94.03
2022-12-16T03:29:05.120Z,94.12
2022-12-16T03:31:38.456Z,94.08
2022-12-16T03:34:11.368Z,94.07
2022-12-16T03:36:40.412Z,94.00
2022-12-16T03:39:09.254Z,93.90
2022-12-16T03:41:37.829Z,94.00
2022-12-16T03:44:06.094Z,94.06
2022-12-16T03:46:35.435Z,94.11
2022-12-16T03:49:03.470Z,94.23
2022-12-16T03:51:31.471Z,94.20
2022-12-16T03:53:59.499Z,94.02
2022-12-16T03:56:27.603Z,94.02
2022-12-16T03:58:55.566Z,93.94
2022-12-16T04:01:24.285Z,93.80
2022-12-16T04:03:53.743Z,93.67
2022-12-16T04:06:21.868Z,93.67
2022-12-16T04:08:49.793Z,93.71
2022-12-16T04:11:35.611Z,93.85
2022-12-16T04:14:21.538Z,93.95
2022-12-16T04:17:07.355Z,93.89
2022-12-16T04:19:55.886Z,93.79
2022-12-16T04:22:43.744Z,93.79
2022-12-16T04:25:15.331Z,93.94
2022-12-16T04:27:47.149Z,93.98
2022-12-16T04:30:22.082Z,93.96
2022-12-16T04:33:11.093Z,94.06
2022-12-16T04:35:58.555Z,93.90
2022-12-16T04:38:44.453Z,93.78
2022-12-16T04:41:38.495Z,93.62
2022-12-16T04:44:24.498Z,93.74
2022-12-16T04:47:10.396Z,93.65
2022-12-16T04:50:01.590Z,93.73
2022-12-16T04:52:50.950Z,93.88
2022-12-16T04:55:36.712Z,93.99
2022-12-16T04:58:22.475Z,94.00
2022-12-16T05:01:13.785Z,93.92
2022-12-16T05:03:59.594Z,93.95
2022-12-16T05:06:45.540Z,94.00
2022-12-16T05:09:32.556Z,94.01
2022-12-16T05:12:18.392Z,93.94
2022-12-16T05:15:04.161Z,93.87
2022-12-16T05:17:49.963Z,93.97
2022-12-16T05:20:35.764Z,94.01
2022-12-16T05:23:21.235Z,93.95
2022-12-16T05:26:08.309Z,93.92
2022-12-16T05:28:54.161Z,93.77
2022-12-16T05:31:39.843Z,93.80
2022-12-16T05:34:26.946Z,93.73
2022-12-16T05:37:08.895Z,93.92
2022-12-16T05:39:54.120Z,93.95
2022-12-16T05:42:41.183Z,93.89
2022-12-16T05:45:27.417Z,93.69
2022-12-16T05:48:12.634Z,93.59
2022-12-16T05:50:58.182Z,93.49
2022-12-16T05:53:58.281Z,93.41
2022-12-16T05:56:43.595Z,93.32
2022-12-16T05:59:39.024Z,93.08
2022-12-16T06:02:24.453Z,93.02
2022-12-16T06:05:09.715Z,92.98
2022-12-16T06:07:55.042Z,92.97
2022-12-16T06:10:49.290Z,93.02
2022-12-16T06:13:34.816Z,93.00
2022-12-16T06:16:21.737Z,92.99
2022-12-16T06:19:07.497Z,92.97
2022-12-16T06:21:53.011Z,92.86
2022-12-16T06:24:38.993Z,92.69
2022-12-16T06:27:24.361Z,92.61
2022-12-16T06:30:10.029Z,92.52
2022-12-16T06:32:57.123Z,92.54
2022-12-16T06:35:42.589Z,92.74
2022-12-16T06:38:28.342Z,92.77
2022-12-16T06:41:13.735Z,92.80
2022-12-16T06:43:59.070Z,92.74
2022-12-16T06:46:44.521Z,92.73
2022-12-16T06:49:31.594Z,92.76
2022-12-16T06:52:16.844Z,92.68
2022-12-16T06:55:02.624Z,92.62
2022-12-16T06:57:48.568Z,92.60
2022-12-16T07:00:34.483Z,92.45
2022-12-16T07:03:20.054Z,92.44
2022-12-16T07:06:11.299Z,92.50
2022-12-16T07:08:56.785Z,92.54
2022-12-16T07:11:47.867Z,92.59
2022-12-16T07:14:33.195Z,92.88
2022-12-16T07:17:18.641Z,93.04
2022-12-16T07:20:04.213Z,93.06
2022-12-16T07:22:58.500Z,93.09
2022-12-16T07:25:55.437Z,93.11
2022-12-16T07:28:40.929Z,93.01
2022-12-16T07:31:26.592Z,92.98
2022-12-16T07:34:12.351Z,92.95
2022-12-16T07:36:57.700Z,92.86
2022-12-16T07:39:46.758Z,92.72
2022-12-16T07:42:35.795Z,92.65
2022-12-16T07:45:21.911Z,92.64
2022-12-16T07:48:08.343Z,92.67
2022-12-16T07:50:54.575Z,92.64
2022-12-16T07:53:41.917Z,92.63
2022-12-16T07:56:29.016Z,92.57
2022-12-16T07:59:15.611Z,92.57
2022-12-16T08:02:01.143Z,92.43
2022-12-16T08:04:47.222Z,92.44
2022-12-16T08:07:32.902Z,92.57
2022-12-16T08:10:18.768Z,92.69
2022-12-16T08:13:05.709Z,92.84
2022-12-16T08:15:50.977Z,92.90
2022-12-16T08:18:36.767Z,93.10
2022-12-16T08:21:22.640Z,93.26
2022-12-16T08:24:07.898Z,93.42
2022-12-16T08:26:53.245Z,93.56
2022-12-16T08:29:45.245Z,93.63
2022-12-16T08:32:36.722Z,93.67
2022-12-16T08:35:23.048Z,93.64
2022-12-16T08:38:13.678Z,93.69
2022-12-16T08:40:59.917Z,93.87
2022-12-16T08:43:45.666Z,94.02
2022-12-16T08:46:32.785Z,94.30
2022-12-16T08:49:18.520Z,94.33
2022-12-16T08:52:03.877Z,94.32
2022-12-16T08:54:49.944Z,94.41
2022-12-16T08:57:37.489Z,94.64
2022-12-16T09:00:23.714Z,94.80
2022-12-16T09:03:13.934Z,94.76
2022-12-16T09:06:00.407Z,94.95
2022-12-16T09:08:46.258Z,95.06
2022-12-16T09:11:31.550Z,95.09
2022-12-16T09:14:22.798Z,95.01
2022-12-16T09:17:08.147Z,94.56
2022-12-16T09:19:56.050Z,94.16
2022-12-16T09:22:41.656Z,93.79
2022-12-16T09:25:27.226Z,93.36
2022-12-16T09:28:12.532Z,93.03
2022-12-16T09:30:58.062Z,92.73
2022-12-16T09:33:43.909Z,92.51
2022-12-16T09:36:30.844Z,92.26
2022-12-16T09:39:16.217Z,91.99
2022-12-16T09:42:02.598Z,91.83
2022-12-16T09:45:06.203Z,91.55
2022-12-16T09:47:57.305Z,91.38
2022-12-16T09:50:45.117Z,91.05
2022-12-16T09:53:34.779Z,91.09
2022-12-16T09:56:21.586Z,90.95
2022-12-16T09:59:10.623Z,90.81
2022-12-16T10:01:57.155Z,90.81
2022-12-16T10:04:43.452Z,90.77
2022-12-16T10:07:35.029Z,90.87
2022-12-16T10:10:36.307Z,90.72
2022-12-16T10:13:26.238Z,90.55
2022-12-16T10:16:17.263Z,90.56
2022-12-16T10:19:10.496Z,90.51
2022-12-16T10:22:02.001Z,90.37
2022-12-16T10:24:53.535Z,90.11
2022-12-16T10:27:44.860Z,90.08
2022-12-16T10:30:31.633Z,90.10
2022-12-16T10:33:17.695Z,90.11
2022-12-16T10:36:05.760Z,89.90
2022-12-16T10:38:56.638Z,89.84
2022-12-16T10:41:45.346Z,89.76
2022-12-16T10:44:41.041Z,89.47
2022-12-16T10:47:28.373Z,89.25
2022-12-16T10:50:14.490Z,88.77
2022-12-16T10:53:11.595Z,88.73
2022-12-16T10:56:10.846Z,88.41
2022-12-16T10:59:03.355Z,88.45
2022-12-16T11:01:50.640Z,88.15
2022-12-16T11:04:50.681Z,88.00
2022-12-16T11:07:45.629Z,88.19
2022-12-16T11:10:45.793Z,87.97
2022-12-16T11:13:36.517Z,87.87
2022-12-16T11:16:28.721Z,87.73
2022-12-16T11:19:15.885Z,87.78
2022-12-16T11:22:01.666Z,87.93
2022-12-16T11:24:47.508Z,87.89
2022-12-16T11:27:35.539Z,87.90
2022-12-16T11:30:23.295Z,87.98
2022-12-16T11:33:11.553Z,87.81
2022-12-16T11:36:00.507Z,87.86
2022-12-16T11:38:50.004Z,87.90
2022-12-16T11:41:44.146Z,87.88
2022-12-16T11:44:37.393Z,87.84
2022-12-16T11:47:27.602Z,88.01
2022-12-16T11:50:14.987Z,87.95
2022-12-16T11:53:09.082Z,87.94
2022-12-16T11:56:05.895Z,88.17
2022-12-16T11:59:00.911Z,88.00
2022-12-16T12:01:50.840Z,88.03
2022-12-16T12:04:36.998Z,87.95
2022-12-16T12:07:32.656Z,88.15
2022-12-16T12:10:25.157Z,88.40
2022-12-16T12:13:14.039Z,88.79
2022-12-16T12:16:03.620Z,88.93
2022-12-16T12:18:56.671Z,88.72
2022-12-16T12:21:46.888Z,88.54
2022-12-16T12:24:42.392Z,88.60
2022-12-16T12:27:35.360Z,88.79
2022-12-16T12:30:23.940Z,89.06
2022-12-16T12:33:19.523Z,89.00
2022-12-16T12:36:15.460Z,88.95
2022-12-16T12:39:11.457Z,88.85
2022-12-16T12:42:11.069Z,88.68
2022-12-16T12:45:05.517Z,88.86
2022-12-16T12:47:48.359Z,89.07
2022-12-16T12:50:40.784Z,89.26
2022-12-16T12:53:30.473Z,89.36
2022-12-16T12:56:23.697Z,89.59
2022-12-16T12:59:10.446Z,89.76
2022-12-16T13:01:59.757Z,89.96
2022-12-16T13:04:46.286Z,89.95
2022-12-16T13:07:32.145Z,89.87
2022-12-16T13:10:46.042Z,89.86
2022-12-16T13:13:50.364Z,89.88
2022-12-16T13:17:25.877Z,89.86
2022-12-16T13:20:14.559Z,89.83
2022-12-16T13:23:00.709Z,89.87
2022-12-16T13:25:51.303Z,89.81
2022-12-16T13:28:47.133Z,89.96
2022-12-16T13:31:33.057Z,90.01
2022-12-16T13:34:23.880Z,90.13
2022-12-16T13:37:19.509Z,90.16
2022-12-16T13:40:20.351Z,90.15
2022-12-16T13:43:11.465Z,90.21
2022-12-16T13:45:59.960Z,90.20
2022-12-16T13:48:56.133Z,90.23
2022-12-16T13:52:24.266Z,90.26
2022-12-16T13:55:25.172Z,90.22
2022-12-16T13:58:13.547Z,90.31
2022-12-16T14:01:00.515Z,90.33
2022-12-16T14:03:57.084Z,90.32
2022-12-16T14:06:44.677Z,90.39
2022-12-16T14:09:44.526Z,90.49
2022-12-16T14:12:40.840Z,90.62
2022-12-16T14:15:37.984Z,90.53
2022-12-16T14:18:33.202Z,90.59
2022-12-16T14:21:22.432Z,90.58
2022-12-16T14:24:12.770Z,90.61
2022-12-16T14:26:58.765Z,90.65
2022-12-16T14:29:45.994Z,90.71
2022-12-16T14:32:40.146Z,90.80
2022-12-16T14:35:31.203Z,90.87
2022-12-16T14:38:17.097Z,90.97
2022-12-16T14:41:08.943Z,90.98
2022-12-16T14:43:57.782Z,90.99
2022-12-16T14:46:47.427Z,91.06
2022-12-16T14:49:38.809Z,91.08
2022-12-16T14:52:49.389Z,91.13
2022-12-16T14:55:37.300Z,91.15
2022-12-16T14:58:24.481Z,91.25
2022-12-16T15:01:15.552Z,91.31
2022-12-16T15:04:10.388Z,91.30
2022-12-16T15:06:58.705Z,91.36
2022-12-16T15:09:46.839Z,91.42
2022-12-16T15:12:34.797Z,91.46
2022-12-16T15:15:22.589Z,91.50
2022-12-16T15:18:09.448Z,91.52
2022-12-16T15:21:01.339Z,91.58
2022-12-16T15:23:51.291Z,91.71
2022-12-16T15:26:38.720Z,91.74
2022-12-16T15:29:46.091Z,91.73
2022-12-16T15:32:48.238Z,91.76
2022-12-16T15:35:44.933Z,91.85
2022-12-16T15:38:37.391Z,91.89
2022-12-16T15:41:24.478Z,92.01
2022-12-16T15:44:10.781Z,92.07
2022-12-16T15:46:56.613Z,92.09
2022-12-16T15:50:04.046Z,92.16
2022-12-16T15:52:54.070Z,92.22
2022-12-16T15:55:50.741Z,92.25
2022-12-16T15:58:40.802Z,92.35
2022-12-16T16:01:35.560Z,92.42
2022-12-16T16:04:21.889Z,92.48
2022-12-16T16:07:09.350Z,92.55
2022-12-16T16:09:56.304Z,92.60
2022-12-16T16:12:43.886Z,92.60
2022-12-16T16:15:31.346Z,92.64
2022-12-16T16:18:18.886Z,92.64
2022-12-16T16:21:04.980Z,92.72
2022-12-16T16:23:50.809Z,92.80
2022-12-16T16:26:38.626Z,92.81
2022-12-16T16:29:25.869Z,92.84
2022-12-16T16:32:11.688Z,92.83
2022-12-16T16:35:12.193Z,92.86
2022-12-16T16:37:58.102Z,92.89
2022-12-16T16:40:53.911Z,92.94
2022-12-16T16:43:40.149Z,92.97
2022-12-16T16:46:37.439Z,92.97
2022-12-16T16:49:23.300Z,93.04
2022-12-16T16:52:09.164Z,93.04
2022-12-16T16:54:54.961Z,93.02
2022-12-16T16:57:40.483Z,93.05
2022-12-16T17:00:29.221Z,93.06
2022-12-16T17:03:28.116Z,93.11
2022-12-16T17:06:10.493Z,93.06
2022-12-16T17:09:07.450Z,93.10
2022-12-16T17:11:52.776Z,93.11
2022-12-16T17:14:39.149Z,93.11
2022-12-16T17:17:25.453Z,93.09
2022-12-16T17:20:12.468Z,93.13
2022-12-16T17:22:58.184Z,93.13
2022-12-16T17:25:43.847Z,93.18
2022-12-16T17:28:30.275Z,93.19
2022-12-16T17:31:16.127Z,93.21
2022-12-16T17:34:02.079Z,93.26
2022-12-16T17:36:57.528Z,93.26
2022-12-16T17:39:43.418Z,93.27
2022-12-16T17:42:29.022Z,93.29
2022-12-16T17:45:14.662Z,93.34
2022-12-16T17:48:05.877Z,93.34
2022-12-16T17:50:51.657Z,93.34
2022-12-16T17:53:38.699Z,93.31
2022-12-16T17:56:24.452Z,93.33
2022-12-16T17:59:11.305Z,93.31
2022-12-16T18:01:56.831Z,93.37
2022-12-16T18:04:42.738Z,93.40
2022-12-16T18:07:28.341Z,93.42
2022-12-16T18:10:15.318Z,93.39
2022-12-16T18:13:01.128Z,93.39
2022-12-16T18:15:46.494Z,93.46
2022-12-16T18:18:32.384Z,93.47
2022-12-16T18:21:27.366Z,93.53
2022-12-16T18:24:13.241Z,93.50
2022-12-16T18:27:00.500Z,93.53
2022-12-16T18:29:46.465Z,93.55
2022-12-16T18:32:35.279Z,93.56
2022-12-16T18:35:31.042Z,93.54
2022-12-16T18:38:19.739Z,93.54
2022-12-16T18:41:06.995Z,93.54
2022-12-16T18:43:56.164Z,93.56
2022-12-16T18:46:44.607Z,93.56
2022-12-16T18:49:30.575Z,93.61
2022-12-16T18:52:16.409Z,93.57
2022-12-16T18:55:01.990Z,93.59
2022-12-16T18:57:50.345Z,93.63
2022-12-16T19:00:37.727Z,93.66
2022-12-16T19:03:23.786Z,93.63
2022-12-16T19:06:12.605Z,93.63
2022-12-16T19:08:58.419Z,93.58
2022-12-16T19:11:46.015Z,93.57
2022-12-16T19:14:33.738Z,93.59
2022-12-16T19:17:21.259Z,93.55
2022-12-16T19:20:12.670Z,93.58
2022-12-16T19:23:02.871Z,93.62
2022-12-16T19:25:48.883Z,93.61
2022-12-16T19:28:40.576Z,93.62
2022-12-16T19:31:32.660Z,93.57
2022-12-16T19:34:22.846Z,93.58
2022-12-16T19:37:08.694Z,93.58
2022-12-16T19:39:56.813Z,93.54
2022-12-16T19:42:42.852Z,93.51
2022-12-16T19:45:28.824Z,93.60
2022-12-16T19:48:19.262Z,93.60
2022-12-16T19:51:06.307Z,93.53
2022-12-16T19:53:52.156Z,93.51
2022-12-16T19:56:37.950Z,93.53
2022-12-16T19:59:23.739Z,93.54
2022-12-16T20:02:09.649Z,93.56
2022-12-16T20:04:56.192Z,93.53
2022-12-16T20:07:43.458Z,93.48
2022-12-16T20:10:29.634Z,93.51
2022-12-16T20:16:32.510Z,93.51
2022-12-16T20:19:18.061Z,93.48
2022-12-16T20:22:06.808Z,93.54
2022-12-16T20:24:56.374Z,93.55
2022-12-16T20:27:42.482Z,93.56
2022-12-16T20:30:29.779Z,93.57
2022-12-16T20:33:15.697Z,93.56
2022-12-16T20:36:01.021Z,93.64
2022-12-16T20:38:46.833Z,93.56
2022-12-16T20:41:33.715Z,93.57
2022-12-16T20:44:19.580Z,93.57
2022-12-16T20:47:04.947Z,93.56
2022-12-16T20:50:05.084Z,93.56
2022-12-16T20:52:50.640Z,93.61
2022-12-16T20:55:37.240Z,93.55
2022-12-16T20:58:24.466Z,93.58
2022-12-16T21:01:10.830Z,93.60
2022-12-16T21:03:56.481Z,93.62
2022-12-16T21:06:42.241Z,93.64
2022-12-16T21:09:28.056Z,93.60
2022-12-16T21:12:18.457Z,93.61
2022-12-16T21:15:05.522Z,93.64
2022-12-16T21:17:51.103Z,93.61
2022-12-16T21:20:37.687Z,93.60
2022-12-16T21:23:24.494Z,93.66
2022-12-16T21:26:10.214Z,93.67
2022-12-16T21:28:56.292Z,93.70
2022-12-16T21:31:43.681Z,93.69
2022-12-16T21:34:30.450Z,93.69
2022-12-16T21:37:15.931Z,93.71
2022-12-16T21:40:01.801Z,93.70
2022-12-16T21:42:47.701Z,93.71
2022-12-16T21:45:33.537Z,93.71
2022-12-16T21:48:20.596Z,93.67
2022-12-16T21:51:09.107Z,93.71
2022-12-16T21:53:55.458Z,93.73
2022-12-16T21:56:42.293Z,93.77
2022-12-16T21:59:27.883Z,93.77
2022-12-16T22:02:13.505Z,93.82
2022-12-16T22:05:00.263Z,93.82
2022-12-16T22:07:46.403Z,93.84
2022-12-16T22:10:32.189Z,93.84
2022-12-16T22:13:18.033Z,93.85
2022-12-16T22:16:13.361Z,93.90
2022-12-16T22:18:58.981Z,93.92
2022-12-16T22:21:46.042Z,93.99
2022-12-16T22:24:31.706Z,94.01
2022-12-16T22:27:17.667Z,94.03
2022-12-16T22:30:03.734Z,94.05
2022-12-16T22:32:49.761Z,94.08
2022-12-16T22:35:35.487Z,94.19
2022-12-16T22:38:22.627Z,94.17
2022-12-16T22:41:13.346Z,94.24
2022-12-16T22:44:01.400Z,94.31
2022-12-16T22:46:47.040Z,94.32
2022-12-16T22:49:32.952Z,94.40
2022-12-16T22:52:18.492Z,94.44
2022-12-16T22:55:06.082Z,94.49
2022-12-16T22:57:53.368Z,94.53
2022-12-16T23:00:39.497Z,94.54
2022-12-16T23:03:25.553Z,94.56
2022-12-16T23:06:11.473Z,94.60
2022-12-16T23:08:57.384Z,94.60
2022-12-16T23:11:51.163Z,94.61
2022-12-16T23:14:42.646Z,94.65
2022-12-16T23:17:29.210Z,94.67
2022-12-16T23:20:15.021Z,94.68
2022-12-16T23:23:00.791Z,94.68
2022-12-16T23:25:46.441Z,94.69
2022-12-16T23:28:33.184Z,94.76
2022-12-16T23:31:19.020Z,94.78
2022-12-16T23:34:04.921Z,94.82
2022-12-16T23:36:50.387Z,94.85
2022-12-16T23:39:36.068Z,94.89
2022-12-16T23:42:21.495Z,94.88
2022-12-16T23:45:08.623Z,94.87
2022-12-16T23:47:55.541Z,94.89
2022-12-16T23:50:42.295Z,94.90
2022-12-16T23:53:29.167Z,94.96
2022-12-16T23:56:15.257Z,94.97
2022-12-16T23:59:01.016Z,94.92
